sensor_id;sensor_type;location;lat;lon;timestamp;P1;durP1;ratioP1;P2;durP2;ratioP2
77160;SDS011;66135;0.000;0.000;2023-05-07T00:01:22;1.35;;;0.50;;
77160;SDS011;66135;0.000;0.000;2023-05-07T00:03:47;1.92;;;0.40;;
77160;SDS011;66135;0.000;0.000;2023-05-07T00:06:12;1.17;;;0.40;;
77160;SDS011;66135;0.000;0.000;2023-05-07T00:08:38;0.75;;;0.32;;
77160;SDS011;66135;0.000;0.000;2023-05-07T00:11:03;1.08;;;0.30;;
77160;SDS011;66135;0.000;0.000;2023-05-07T00:13:29;2.35;;;0.68;;
77160;SDS011;66135;0.000;0.000;2023-05-07T00:16:04;1.23;;;0.50;;
77160;SDS011;66135;0.000;0.000;2023-05-07T00:18:30;1.00;;;0.20;;
77160;SDS011;66135;0.000;0.000;2023-05-07T00:20:56;1.67;;;0.60;;
77160;SDS011;66135;0.000;0.000;2023-05-07T00:23:21;1.80;;;0.90;;
77160;SDS011;66135;0.000;0.000;2023-05-07T00:25:47;0.60;;;0.30;;
77160;SDS011;66135;0.000;0.000;2023-05-07T00:28:12;1.38;;;0.40;;
77160;SDS011;66135;0.000;0.000;2023-05-07T00:30:38;1.83;;;0.30;;
77160;SDS011;66135;0.000;0.000;2023-05-07T00:33:03;1.13;;;0.13;;
77160;SDS011;66135;0.000;0.000;2023-05-07T00:35:29;0.80;;;0.22;;
77160;SDS011;66135;0.000;0.000;2023-05-07T00:37:55;1.30;;;0.20;;
77160;SDS011;66135;0.000;0.000;2023-05-07T00:40:20;0.65;;;0.20;;
77160;SDS011;66135;0.000;0.000;2023-05-07T00:42:46;0.60;;;0.22;;
77160;SDS011;66135;0.000;0.000;2023-05-07T00:45:12;1.52;;;1.05;;
77160;SDS011;66135;0.000;0.000;2023-05-07T00:47:38;0.95;;;0.20;;
77160;SDS011;66135;0.000;0.000;2023-05-07T00:52:30;1.63;;;0.20;;
77160;SDS011;66135;0.000;0.000;2023-05-07T00:54:56;1.42;;;0.60;;
77160;SDS011;66135;0.000;0.000;2023-05-07T00:57:21;2.08;;;0.73;;
77160;SDS011;66135;0.000;0.000;2023-05-07T00:59:50;1.15;;;0.45;;
77160;SDS011;66135;0.000;0.000;2023-05-07T01:02:16;0.73;;;0.30;;
77160;SDS011;66135;0.000;0.000;2023-05-07T01:04:42;0.90;;;0.38;;
77160;SDS011;66135;0.000;0.000;2023-05-07T01:07:07;1.10;;;0.52;;
77160;SDS011;66135;0.000;0.000;2023-05-07T01:09:33;2.35;;;0.73;;
77160;SDS011;66135;0.000;0.000;2023-05-07T01:12:00;0.85;;;0.20;;
77160;SDS011;66135;0.000;0.000;2023-05-07T01:14:26;2.17;;;0.52;;
77160;SDS011;66135;0.000;0.000;2023-05-07T01:17:00;1.33;;;0.40;;
77160;SDS011;66135;0.000;0.000;2023-05-07T01:19:26;1.42;;;0.57;;
77160;SDS011;66135;0.000;0.000;2023-05-07T01:21:54;1.45;;;0.47;;
77160;SDS011;66135;0.000;0.000;2023-05-07T01:24:27;0.88;;;0.38;;
77160;SDS011;66135;0.000;0.000;2023-05-07T01:29:19;0.82;;;0.10;;
77160;SDS011;66135;0.000;0.000;2023-05-07T01:31:44;1.30;;;0.43;;
77160;SDS011;66135;0.000;0.000;2023-05-07T01:34:11;0.80;;;0.30;;
77160;SDS011;66135;0.000;0.000;2023-05-07T01:36:39;1.35;;;0.55;;
77160;SDS011;66135;0.000;0.000;2023-05-07T01:39:05;1.20;;;0.35;;
77160;SDS011;66135;0.000;0.000;2023-05-07T01:41:32;0.80;;;0.50;;
77160;SDS011;66135;0.000;0.000;2023-05-07T01:43:58;1.25;;;0.55;;
77160;SDS011;66135;0.000;0.000;2023-05-07T01:46:24;0.82;;;0.38;;
77160;SDS011;66135;0.000;0.000;2023-05-07T01:49:00;0.77;;;0.25;;
77160;SDS011;66135;0.000;0.000;2023-05-07T01:51:26;1.67;;;0.43;;
77160;SDS011;66135;0.000;0.000;2023-05-07T01:53:52;0.52;;;0.30;;
77160;SDS011;66135;0.000;0.000;2023-05-07T01:56:18;2.10;;;0.50;;
77160;SDS011;66135;0.000;0.000;2023-05-07T01:58:45;0.70;;;0.32;;
77160;SDS011;66135;0.000;0.000;2023-05-07T02:01:12;1.73;;;0.57;;
77160;SDS011;66135;0.000;0.000;2023-05-07T02:03:38;0.70;;;0.30;;
77160;SDS011;66135;0.000;0.000;2023-05-07T02:06:03;1.67;;;0.40;;
77160;SDS011;66135;0.000;0.000;2023-05-07T02:08:28;1.92;;;0.50;;
77160;SDS011;66135;0.000;0.000;2023-05-07T02:10:55;1.08;;;0.40;;
77160;SDS011;66135;0.000;0.000;2023-05-07T02:13:20;1.23;;;0.60;;
77160;SDS011;66135;0.000;0.000;2023-05-07T02:15:47;1.23;;;0.50;;
77160;SDS011;66135;0.000;0.000;2023-05-07T02:18:15;1.30;;;0.50;;
77160;SDS011;66135;0.000;0.000;2023-05-07T02:20:41;1.05;;;0.30;;
77160;SDS011;66135;0.000;0.000;2023-05-07T02:23:06;0.40;;;0.38;;
77160;SDS011;66135;0.000;0.000;2023-05-07T02:25:32;1.60;;;0.52;;
77160;SDS011;66135;0.000;0.000;2023-05-07T02:27:57;1.35;;;0.63;;
77160;SDS011;66135;0.000;0.000;2023-05-07T02:30:23;1.60;;;0.47;;
77160;SDS011;66135;0.000;0.000;2023-05-07T02:32:50;1.35;;;0.63;;
77160;SDS011;66135;0.000;0.000;2023-05-07T02:35:15;0.80;;;0.40;;
77160;SDS011;66135;0.000;0.000;2023-05-07T02:37:41;1.50;;;0.30;;
77160;SDS011;66135;0.000;0.000;2023-05-07T02:40:06;1.33;;;0.30;;
77160;SDS011;66135;0.000;0.000;2023-05-07T02:42:32;1.65;;;0.63;;
77160;SDS011;66135;0.000;0.000;2023-05-07T02:44:58;1.02;;;0.50;;
77160;SDS011;66135;0.000;0.000;2023-05-07T02:47:23;1.27;;;0.40;;
77160;SDS011;66135;0.000;0.000;2023-05-07T02:49:52;0.98;;;0.50;;
77160;SDS011;66135;0.000;0.000;2023-05-07T02:52:18;1.08;;;0.28;;
77160;SDS011;66135;0.000;0.000;2023-05-07T02:54:43;0.70;;;0.40;;
77160;SDS011;66135;0.000;0.000;2023-05-07T02:57:09;1.10;;;0.50;;
77160;SDS011;66135;0.000;0.000;2023-05-07T02:59:34;1.40;;;0.50;;
77160;SDS011;66135;0.000;0.000;2023-05-07T03:02:00;1.60;;;0.65;;
77160;SDS011;66135;0.000;0.000;2023-05-07T03:04:25;1.33;;;0.43;;
77160;SDS011;66135;0.000;0.000;2023-05-07T03:06:50;2.05;;;0.63;;
77160;SDS011;66135;0.000;0.000;2023-05-07T03:09:16;1.15;;;0.70;;
77160;SDS011;66135;0.000;0.000;2023-05-07T03:11:41;1.20;;;0.63;;
77160;SDS011;66135;0.000;0.000;2023-05-07T03:14:07;1.08;;;0.45;;
77160;SDS011;66135;0.000;0.000;2023-05-07T03:16:32;1.05;;;0.93;;
77160;SDS011;66135;0.000;0.000;2023-05-07T03:18:58;1.13;;;0.20;;
77160;SDS011;66135;0.000;0.000;2023-05-07T03:21:23;1.55;;;0.60;;
77160;SDS011;66135;0.000;0.000;2023-05-07T03:23:49;1.60;;;0.52;;
77160;SDS011;66135;0.000;0.000;2023-05-07T03:26:14;1.15;;;0.95;;
77160;SDS011;66135;0.000;0.000;2023-05-07T03:28:40;0.88;;;0.35;;
77160;SDS011;66135;0.000;0.000;2023-05-07T03:31:05;1.05;;;0.63;;
77160;SDS011;66135;0.000;0.000;2023-05-07T03:33:32;0.80;;;0.55;;
77160;SDS011;66135;0.000;0.000;2023-05-07T03:35:58;1.10;;;0.47;;
77160;SDS011;66135;0.000;0.000;2023-05-07T03:38:24;0.80;;;0.40;;
77160;SDS011;66135;0.000;0.000;2023-05-07T03:40:49;1.45;;;0.60;;
77160;SDS011;66135;0.000;0.000;2023-05-07T03:43:15;0.80;;;0.25;;
77160;SDS011;66135;0.000;0.000;2023-05-07T03:45:41;0.85;;;0.25;;
77160;SDS011;66135;0.000;0.000;2023-05-07T03:48:07;1.23;;;0.63;;
77160;SDS011;66135;0.000;0.000;2023-05-07T03:50:32;1.45;;;0.60;;
77160;SDS011;66135;0.000;0.000;2023-05-07T03:52:58;3.10;;;0.80;;
77160;SDS011;66135;0.000;0.000;2023-05-07T03:55:23;1.80;;;0.52;;
77160;SDS011;66135;0.000;0.000;2023-05-07T03:57:49;3.20;;;1.00;;
77160;SDS011;66135;0.000;0.000;2023-05-07T04:00:14;2.15;;;0.70;;
77160;SDS011;66135;0.000;0.000;2023-05-07T04:02:40;1.05;;;0.30;;
77160;SDS011;66135;0.000;0.000;2023-05-07T04:05:05;1.35;;;0.68;;
77160;SDS011;66135;0.000;0.000;2023-05-07T04:07:31;1.48;;;0.45;;
77160;SDS011;66135;0.000;0.000;2023-05-07T04:09:56;1.13;;;0.50;;
77160;SDS011;66135;0.000;0.000;2023-05-07T04:12:22;1.27;;;0.68;;
77160;SDS011;66135;0.000;0.000;2023-05-07T04:14:47;2.15;;;0.70;;
77160;SDS011;66135;0.000;0.000;2023-05-07T04:17:12;1.40;;;0.57;;
77160;SDS011;66135;0.000;0.000;2023-05-07T04:19:38;1.13;;;1.02;;
77160;SDS011;66135;0.000;0.000;2023-05-07T04:22:03;1.60;;;0.43;;
77160;SDS011;66135;0.000;0.000;2023-05-07T04:24:32;1.40;;;0.40;;
77160;SDS011;66135;0.000;0.000;2023-05-07T04:27:00;1.33;;;0.52;;
77160;SDS011;66135;0.000;0.000;2023-05-07T04:29:26;3.05;;;1.00;;
77160;SDS011;66135;0.000;0.000;2023-05-07T04:31:52;1.40;;;0.63;;
77160;SDS011;66135;0.000;0.000;2023-05-07T04:34:17;3.22;;;1.00;;
77160;SDS011;66135;0.000;0.000;2023-05-07T04:36:43;0.85;;;0.50;;
77160;SDS011;66135;0.000;0.000;2023-05-07T04:39:08;1.58;;;0.98;;
77160;SDS011;66135;0.000;0.000;2023-05-07T04:41:35;4.05;;;1.38;;
77160;SDS011;66135;0.000;0.000;2023-05-07T04:44:01;1.65;;;1.30;;
77160;SDS011;66135;0.000;0.000;2023-05-07T04:46:29;1.95;;;1.27;;
77160;SDS011;66135;0.000;0.000;2023-05-07T04:48:55;2.22;;;1.35;;
77160;SDS011;66135;0.000;0.000;2023-05-07T04:51:20;2.38;;;1.73;;
77160;SDS011;66135;0.000;0.000;2023-05-07T04:53:46;1.52;;;0.90;;
77160;SDS011;66135;0.000;0.000;2023-05-07T04:56:11;3.50;;;1.08;;
77160;SDS011;66135;0.000;0.000;2023-05-07T04:58:37;1.70;;;0.90;;
77160;SDS011;66135;0.000;0.000;2023-05-07T05:01:02;3.38;;;1.85;;
77160;SDS011;66135;0.000;0.000;2023-05-07T05:03:28;2.35;;;1.00;;
77160;SDS011;66135;0.000;0.000;2023-05-07T05:05:53;2.55;;;1.10;;
77160;SDS011;66135;0.000;0.000;2023-05-07T05:08:18;1.60;;;1.02;;
77160;SDS011;66135;0.000;0.000;2023-05-07T05:10:44;1.85;;;0.88;;
77160;SDS011;66135;0.000;0.000;2023-05-07T05:13:09;3.75;;;1.75;;
77160;SDS011;66135;0.000;0.000;2023-05-07T05:15:37;1.58;;;1.13;;
77160;SDS011;66135;0.000;0.000;2023-05-07T05:18:03;2.30;;;1.40;;
77160;SDS011;66135;0.000;0.000;2023-05-07T05:20:28;1.77;;;1.00;;
77160;SDS011;66135;0.000;0.000;2023-05-07T05:22:54;1.70;;;1.08;;
77160;SDS011;66135;0.000;0.000;2023-05-07T05:25:20;1.73;;;1.17;;
77160;SDS011;66135;0.000;0.000;2023-05-07T05:27:45;1.90;;;1.05;;
77160;SDS011;66135;0.000;0.000;2023-05-07T05:30:11;2.35;;;0.90;;
77160;SDS011;66135;0.000;0.000;2023-05-07T05:32:36;1.50;;;1.13;;
77160;SDS011;66135;0.000;0.000;2023-05-07T05:35:06;2.22;;;1.20;;
77160;SDS011;66135;0.000;0.000;2023-05-07T05:37:31;1.55;;;1.05;;
77160;SDS011;66135;0.000;0.000;2023-05-07T05:39:57;2.47;;;1.23;;
77160;SDS011;66135;0.000;0.000;2023-05-07T05:42:22;2.20;;;1.17;;
77160;SDS011;66135;0.000;0.000;2023-05-07T05:44:48;2.08;;;1.23;;
77160;SDS011;66135;0.000;0.000;2023-05-07T05:47:13;1.48;;;1.13;;
77160;SDS011;66135;0.000;0.000;2023-05-07T05:49:39;1.92;;;1.20;;
77160;SDS011;66135;0.000;0.000;2023-05-07T05:52:05;2.15;;;1.13;;
77160;SDS011;66135;0.000;0.000;2023-05-07T05:54:30;2.08;;;0.98;;
77160;SDS011;66135;0.000;0.000;2023-05-07T05:56:55;1.90;;;1.30;;
77160;SDS011;66135;0.000;0.000;2023-05-07T05:59:21;1.20;;;0.95;;
77160;SDS011;66135;0.000;0.000;2023-05-07T06:01:47;1.50;;;0.93;;
77160;SDS011;66135;0.000;0.000;2023-05-07T06:04:12;2.10;;;1.30;;
77160;SDS011;66135;0.000;0.000;2023-05-07T06:06:38;2.60;;;1.30;;
77160;SDS011;66135;0.000;0.000;2023-05-07T06:09:03;2.83;;;1.20;;
77160;SDS011;66135;0.000;0.000;2023-05-07T06:11:29;2.67;;;1.13;;
77160;SDS011;66135;0.000;0.000;2023-05-07T06:13:54;3.63;;;1.00;;
77160;SDS011;66135;0.000;0.000;2023-05-07T06:16:20;4.93;;;1.23;;
77160;SDS011;66135;0.000;0.000;2023-05-07T06:18:45;2.72;;;0.98;;
77160;SDS011;66135;0.000;0.000;2023-05-07T06:21:11;2.00;;;1.48;;
77160;SDS011;66135;0.000;0.000;2023-05-07T06:23:38;3.00;;;1.15;;
77160;SDS011;66135;0.000;0.000;2023-05-07T06:26:14;1.83;;;1.27;;
77160;SDS011;66135;0.000;0.000;2023-05-07T06:28:56;3.28;;;1.10;;
77160;SDS011;66135;0.000;0.000;2023-05-07T06:31:21;1.27;;;0.73;;
77160;SDS011;66135;0.000;0.000;2023-05-07T06:33:47;2.45;;;0.90;;
77160;SDS011;66135;0.000;0.000;2023-05-07T06:38:38;2.67;;;0.90;;
77160;SDS011;66135;0.000;0.000;2023-05-07T06:41:05;2.63;;;0.98;;
77160;SDS011;66135;0.000;0.000;2023-05-07T06:43:31;2.75;;;1.33;;
77160;SDS011;66135;0.000;0.000;2023-05-07T06:45:57;1.23;;;0.73;;
77160;SDS011;66135;0.000;0.000;2023-05-07T06:48:22;2.60;;;0.90;;
77160;SDS011;66135;0.000;0.000;2023-05-07T06:50:48;1.73;;;1.05;;
77160;SDS011;66135;0.000;0.000;2023-05-07T06:53:13;2.15;;;1.00;;
77160;SDS011;66135;0.000;0.000;2023-05-07T06:55:38;3.75;;;1.83;;
77160;SDS011;66135;0.000;0.000;2023-05-07T06:58:04;2.30;;;1.25;;
77160;SDS011;66135;0.000;0.000;2023-05-07T07:00:30;2.25;;;1.10;;
77160;SDS011;66135;0.000;0.000;2023-05-07T07:02:56;3.30;;;1.00;;
77160;SDS011;66135;0.000;0.000;2023-05-07T07:05:22;1.60;;;1.08;;
77160;SDS011;66135;0.000;0.000;2023-05-07T07:07:48;2.10;;;1.15;;
77160;SDS011;66135;0.000;0.000;2023-05-07T07:10:18;1.92;;;1.27;;
77160;SDS011;66135;0.000;0.000;2023-05-07T07:12:47;1.88;;;1.20;;
77160;SDS011;66135;0.000;0.000;2023-05-07T07:15:13;3.00;;;1.23;;
77160;SDS011;66135;0.000;0.000;2023-05-07T07:17:39;1.88;;;1.50;;
77160;SDS011;66135;0.000;0.000;2023-05-07T07:20:04;2.85;;;1.25;;
77160;SDS011;66135;0.000;0.000;2023-05-07T07:22:30;1.85;;;0.88;;
77160;SDS011;66135;0.000;0.000;2023-05-07T07:24:55;2.35;;;0.93;;
77160;SDS011;66135;0.000;0.000;2023-05-07T07:27:21;2.30;;;1.00;;
77160;SDS011;66135;0.000;0.000;2023-05-07T07:29:46;2.55;;;1.42;;
77160;SDS011;66135;0.000;0.000;2023-05-07T07:32:12;3.70;;;1.35;;
77160;SDS011;66135;0.000;0.000;2023-05-07T07:34:37;2.80;;;1.48;;
77160;SDS011;66135;0.000;0.000;2023-05-07T07:37:03;1.80;;;0.93;;
77160;SDS011;66135;0.000;0.000;2023-05-07T07:39:31;2.00;;;1.45;;
77160;SDS011;66135;0.000;0.000;2023-05-07T07:41:57;4.25;;;1.27;;
77160;SDS011;66135;0.000;0.000;2023-05-07T07:44:22;2.42;;;1.10;;
77160;SDS011;66135;0.000;0.000;2023-05-07T07:46:48;2.75;;;1.25;;
77160;SDS011;66135;0.000;0.000;2023-05-07T07:49:13;2.65;;;1.13;;
77160;SDS011;66135;0.000;0.000;2023-05-07T07:51:43;2.20;;;0.93;;
77160;SDS011;66135;0.000;0.000;2023-05-07T07:54:08;2.97;;;1.33;;
77160;SDS011;66135;0.000;0.000;2023-05-07T07:56:34;1.63;;;1.02;;
77160;SDS011;66135;0.000;0.000;2023-05-07T07:58:59;2.50;;;1.38;;
77160;SDS011;66135;0.000;0.000;2023-05-07T08:01:25;2.42;;;1.58;;
77160;SDS011;66135;0.000;0.000;2023-05-07T08:03:51;3.88;;;2.75;;
77160;SDS011;66135;0.000;0.000;2023-05-07T08:06:17;2.30;;;2.00;;
77160;SDS011;66135;0.000;0.000;2023-05-07T08:08:42;3.25;;;1.55;;
77160;SDS011;66135;0.000;0.000;2023-05-07T08:11:08;3.22;;;1.60;;
77160;SDS011;66135;0.000;0.000;2023-05-07T08:13:33;2.70;;;1.58;;
77160;SDS011;66135;0.000;0.000;2023-05-07T08:15:59;2.47;;;1.52;;
77160;SDS011;66135;0.000;0.000;2023-05-07T08:18:25;2.50;;;1.70;;
77160;SDS011;66135;0.000;0.000;2023-05-07T08:20:51;4.03;;;2.90;;
77160;SDS011;66135;0.000;0.000;2023-05-07T08:23:16;2.42;;;1.60;;
77160;SDS011;66135;0.000;0.000;2023-05-07T08:25:42;3.17;;;1.63;;
77160;SDS011;66135;0.000;0.000;2023-05-07T08:28:10;2.72;;;2.13;;
77160;SDS011;66135;0.000;0.000;2023-05-07T08:30:36;3.25;;;1.83;;
77160;SDS011;66135;0.000;0.000;2023-05-07T08:33:09;3.78;;;1.55;;
77160;SDS011;66135;0.000;0.000;2023-05-07T08:35:35;2.35;;;1.52;;
77160;SDS011;66135;0.000;0.000;2023-05-07T08:38:00;3.00;;;1.85;;
77160;SDS011;66135;0.000;0.000;2023-05-07T08:40:26;1.75;;;1.42;;
77160;SDS011;66135;0.000;0.000;2023-05-07T08:42:52;2.72;;;1.30;;
77160;SDS011;66135;0.000;0.000;2023-05-07T08:45:19;2.85;;;1.70;;
77160;SDS011;66135;0.000;0.000;2023-05-07T08:47:52;2.05;;;1.40;;
77160;SDS011;66135;0.000;0.000;2023-05-07T08:50:23;1.65;;;1.15;;
77160;SDS011;66135;0.000;0.000;2023-05-07T08:52:48;2.60;;;1.42;;
77160;SDS011;66135;0.000;0.000;2023-05-07T08:55:23;3.45;;;2.35;;
77160;SDS011;66135;0.000;0.000;2023-05-07T08:57:49;2.38;;;1.60;;
77160;SDS011;66135;0.000;0.000;2023-05-07T09:00:15;1.67;;;1.50;;
77160;SDS011;66135;0.000;0.000;2023-05-07T09:02:41;2.67;;;1.58;;
77160;SDS011;66135;0.000;0.000;2023-05-07T09:05:06;1.65;;;1.17;;
77160;SDS011;66135;0.000;0.000;2023-05-07T09:07:32;2.53;;;1.60;;
77160;SDS011;66135;0.000;0.000;2023-05-07T09:09:57;2.45;;;1.50;;
77160;SDS011;66135;0.000;0.000;2023-05-07T09:12:24;2.33;;;1.15;;
77160;SDS011;66135;0.000;0.000;2023-05-07T09:14:49;6.28;;;1.48;;
77160;SDS011;66135;0.000;0.000;2023-05-07T09:17:15;3.08;;;2.80;;
77160;SDS011;66135;0.000;0.000;2023-05-07T09:19:41;2.28;;;1.63;;
77160;SDS011;66135;0.000;0.000;2023-05-07T09:22:09;2.33;;;1.38;;
77160;SDS011;66135;0.000;0.000;2023-05-07T09:24:35;3.05;;;1.85;;
77160;SDS011;66135;0.000;0.000;2023-05-07T09:27:03;3.33;;;1.55;;
77160;SDS011;66135;0.000;0.000;2023-05-07T09:29:33;2.65;;;1.63;;
77160;SDS011;66135;0.000;0.000;2023-05-07T09:32:07;3.25;;;1.40;;
77160;SDS011;66135;0.000;0.000;2023-05-07T09:34:33;2.65;;;1.40;;
77160;SDS011;66135;0.000;0.000;2023-05-07T09:37:03;3.70;;;1.30;;
77160;SDS011;66135;0.000;0.000;2023-05-07T09:39:40;3.65;;;0.93;;
77160;SDS011;66135;0.000;0.000;2023-05-07T09:42:06;3.08;;;2.25;;
77160;SDS011;66135;0.000;0.000;2023-05-07T09:44:32;4.28;;;1.48;;
77160;SDS011;66135;0.000;0.000;2023-05-07T09:46:58;3.80;;;1.95;;
77160;SDS011;66135;0.000;0.000;2023-05-07T09:49:25;3.20;;;2.38;;
77160;SDS011;66135;0.000;0.000;2023-05-07T09:51:57;5.07;;;2.22;;
77160;SDS011;66135;0.000;0.000;2023-05-07T09:54:25;3.15;;;2.05;;
77160;SDS011;66135;0.000;0.000;2023-05-07T09:56:52;5.03;;;2.40;;
77160;SDS011;66135;0.000;0.000;2023-05-07T09:59:18;3.80;;;2.08;;
77160;SDS011;66135;0.000;0.000;2023-05-07T10:01:45;5.88;;;2.40;;
77160;SDS011;66135;0.000;0.000;2023-05-07T10:04:11;3.03;;;2.15;;
77160;SDS011;66135;0.000;0.000;2023-05-07T10:09:02;5.10;;;3.35;;
77160;SDS011;66135;0.000;0.000;2023-05-07T10:11:32;2.88;;;2.20;;
77160;SDS011;66135;0.000;0.000;2023-05-07T10:13:59;10.70;;;2.55;;
77160;SDS011;66135;0.000;0.000;2023-05-07T10:16:26;8.82;;;2.08;;
77160;SDS011;66135;0.000;0.000;2023-05-07T10:18:54;3.40;;;2.00;;
77160;SDS011;66135;0.000;0.000;2023-05-07T10:21:20;6.45;;;2.50;;
77160;SDS011;66135;0.000;0.000;2023-05-07T10:23:49;9.27;;;2.42;;
77160;SDS011;66135;0.000;0.000;2023-05-07T10:26:16;4.10;;;1.95;;
77160;SDS011;66135;0.000;0.000;2023-05-07T10:28:44;3.30;;;1.63;;
77160;SDS011;66135;0.000;0.000;2023-05-07T10:34:00;6.10;;;1.80;;
77160;SDS011;66135;0.000;0.000;2023-05-07T10:36:32;6.53;;;2.20;;
77160;SDS011;66135;0.000;0.000;2023-05-07T10:38:59;4.30;;;2.55;;
77160;SDS011;66135;0.000;0.000;2023-05-07T10:41:25;2.67;;;1.13;;
77160;SDS011;66135;0.000;0.000;2023-05-07T10:43:50;3.28;;;1.75;;
77160;SDS011;66135;0.000;0.000;2023-05-07T10:46:18;3.63;;;1.52;;
77160;SDS011;66135;0.000;0.000;2023-05-07T10:51:31;4.05;;;1.58;;
77160;SDS011;66135;0.000;0.000;2023-05-07T10:56:39;4.13;;;1.13;;
77160;SDS011;66135;0.000;0.000;2023-05-07T11:01:55;4.95;;;1.55;;
77160;SDS011;66135;0.000;0.000;2023-05-07T11:04:22;2.30;;;1.20;;
77160;SDS011;66135;0.000;0.000;2023-05-07T11:15:12;4.72;;;3.03;;
77160;SDS011;66135;0.000;0.000;2023-05-07T11:17:53;7.00;;;2.95;;
77160;SDS011;66135;0.000;0.000;2023-05-07T11:20:47;5.45;;;2.30;;
77160;SDS011;66135;0.000;0.000;2023-05-07T11:25:59;2.67;;;2.20;;
77160;SDS011;66135;0.000;0.000;2023-05-07T11:28:27;5.63;;;2.65;;
77160;SDS011;66135;0.000;0.000;2023-05-07T11:30:53;5.93;;;3.10;;
77160;SDS011;66135;0.000;0.000;2023-05-07T11:33:19;4.53;;;3.00;;
77160;SDS011;66135;0.000;0.000;2023-05-07T11:35:45;3.90;;;2.95;;
77160;SDS011;66135;0.000;0.000;2023-05-07T11:38:11;4.53;;;3.00;;
77160;SDS011;66135;0.000;0.000;2023-05-07T11:40:52;4.57;;;2.78;;
77160;SDS011;66135;0.000;0.000;2023-05-07T11:43:19;4.10;;;2.40;;
77160;SDS011;66135;0.000;0.000;2023-05-07T11:48:13;4.22;;;2.60;;
77160;SDS011;66135;0.000;0.000;2023-05-07T11:53:27;4.03;;;2.10;;
77160;SDS011;66135;0.000;0.000;2023-05-07T11:55:54;7.10;;;2.38;;
77160;SDS011;66135;0.000;0.000;2023-05-07T11:58:21;3.85;;;1.85;;
77160;SDS011;66135;0.000;0.000;2023-05-07T12:00:51;4.38;;;1.95;;
77160;SDS011;66135;0.000;0.000;2023-05-07T12:03:19;3.85;;;2.25;;
77160;SDS011;66135;0.000;0.000;2023-05-07T12:05:45;2.53;;;1.55;;
77160;SDS011;66135;0.000;0.000;2023-05-07T12:08:15;3.88;;;2.50;;
77160;SDS011;66135;0.000;0.000;2023-05-07T12:13:19;3.67;;;1.90;;
77160;SDS011;66135;0.000;0.000;2023-05-07T12:15:50;2.40;;;1.67;;
77160;SDS011;66135;0.000;0.000;2023-05-07T12:18:19;3.55;;;1.45;;
77160;SDS011;66135;0.000;0.000;2023-05-07T12:20:45;3.72;;;1.73;;
77160;SDS011;66135;0.000;0.000;2023-05-07T12:23:11;4.20;;;2.25;;
77160;SDS011;66135;0.000;0.000;2023-05-07T12:25:51;3.42;;;2.47;;
77160;SDS011;66135;0.000;0.000;2023-05-07T12:28:17;2.97;;;1.95;;
77160;SDS011;66135;0.000;0.000;2023-05-07T12:30:43;5.30;;;1.88;;
77160;SDS011;66135;0.000;0.000;2023-05-07T12:33:11;2.13;;;1.48;;
77160;SDS011;66135;0.000;0.000;2023-05-07T12:38:08;3.72;;;1.92;;
77160;SDS011;66135;0.000;0.000;2023-05-07T12:40:39;3.00;;;1.63;;
77160;SDS011;66135;0.000;0.000;2023-05-07T12:43:06;3.28;;;1.88;;
77160;SDS011;66135;0.000;0.000;2023-05-07T12:48:02;4.35;;;1.83;;
77160;SDS011;66135;0.000;0.000;2023-05-07T12:50:30;3.53;;;1.50;;
77160;SDS011;66135;0.000;0.000;2023-05-07T12:52:57;2.80;;;1.88;;
77160;SDS011;66135;0.000;0.000;2023-05-07T12:57:48;2.30;;;1.63;;
77160;SDS011;66135;0.000;0.000;2023-05-07T13:00:15;2.75;;;1.17;;
77160;SDS011;66135;0.000;0.000;2023-05-07T13:02:41;2.63;;;1.38;;
77160;SDS011;66135;0.000;0.000;2023-05-07T13:05:10;3.85;;;1.63;;
77160;SDS011;66135;0.000;0.000;2023-05-07T13:07:36;1.98;;;1.20;;
77160;SDS011;66135;0.000;0.000;2023-05-07T13:10:02;3.55;;;1.90;;
77160;SDS011;66135;0.000;0.000;2023-05-07T13:12:28;2.08;;;1.35;;
77160;SDS011;66135;0.000;0.000;2023-05-07T13:14:54;4.35;;;1.38;;
77160;SDS011;66135;0.000;0.000;2023-05-07T13:17:19;3.42;;;1.25;;
77160;SDS011;66135;0.000;0.000;2023-05-07T13:19:45;1.70;;;1.30;;
77160;SDS011;66135;0.000;0.000;2023-05-07T13:22:10;3.30;;;1.38;;
77160;SDS011;66135;0.000;0.000;2023-05-07T13:24:36;2.30;;;1.90;;
77160;SDS011;66135;0.000;0.000;2023-05-07T13:27:01;2.40;;;1.40;;
77160;SDS011;66135;0.000;0.000;2023-05-07T13:29:28;2.30;;;0.98;;
77160;SDS011;66135;0.000;0.000;2023-05-07T13:32:03;2.58;;;1.38;;
77160;SDS011;66135;0.000;0.000;2023-05-07T13:34:28;3.00;;;1.50;;
77160;SDS011;66135;0.000;0.000;2023-05-07T13:39:20;3.65;;;1.77;;
77160;SDS011;66135;0.000;0.000;2023-05-07T13:41:45;1.67;;;0.88;;
77160;SDS011;66135;0.000;0.000;2023-05-07T13:44:11;2.53;;;1.15;;
77160;SDS011;66135;0.000;0.000;2023-05-07T13:46:36;1.95;;;1.23;;
77160;SDS011;66135;0.000;0.000;2023-05-07T13:49:01;2.83;;;1.45;;
77160;SDS011;66135;0.000;0.000;2023-05-07T13:51:27;2.00;;;1.48;;
77160;SDS011;66135;0.000;0.000;2023-05-07T13:53:52;2.35;;;1.20;;
77160;SDS011;66135;0.000;0.000;2023-05-07T13:56:19;2.88;;;1.23;;
77160;SDS011;66135;0.000;0.000;2023-05-07T14:01:10;2.63;;;1.53;;
77160;SDS011;66135;0.000;0.000;2023-05-07T14:06:02;3.70;;;1.48;;
77160;SDS011;66135;0.000;0.000;2023-05-07T14:08:28;2.50;;;1.25;;
77160;SDS011;66135;0.000;0.000;2023-05-07T14:10:53;3.13;;;1.05;;
77160;SDS011;66135;0.000;0.000;2023-05-07T14:13:19;2.70;;;1.95;;
77160;SDS011;66135;0.000;0.000;2023-05-07T14:15:44;1.80;;;1.00;;
77160;SDS011;66135;0.000;0.000;2023-05-07T14:18:12;2.13;;;0.82;;
77160;SDS011;66135;0.000;0.000;2023-05-07T14:20:37;2.25;;;2.05;;
77160;SDS011;66135;0.000;0.000;2023-05-07T14:23:03;1.25;;;0.82;;
77160;SDS011;66135;0.000;0.000;2023-05-07T14:27:54;3.70;;;1.48;;
77160;SDS011;66135;0.000;0.000;2023-05-07T14:32:45;2.60;;;1.25;;
77160;SDS011;66135;0.000;0.000;2023-05-07T14:37:35;1.97;;;0.90;;
77160;SDS011;66135;0.000;0.000;2023-05-07T14:40:01;2.00;;;0.90;;
77160;SDS011;66135;0.000;0.000;2023-05-07T14:44:51;4.10;;;1.00;;
77160;SDS011;66135;0.000;0.000;2023-05-07T14:47:18;2.22;;;0.85;;
77160;SDS011;66135;0.000;0.000;2023-05-07T14:52:08;1.83;;;1.30;;
77160;SDS011;66135;0.000;0.000;2023-05-07T14:54:34;1.42;;;0.88;;
77160;SDS011;66135;0.000;0.000;2023-05-07T14:59:26;1.20;;;0.90;;
77160;SDS011;66135;0.000;0.000;2023-05-07T15:04:17;1.60;;;0.75;;
77160;SDS011;66135;0.000;0.000;2023-05-07T15:06:42;1.50;;;1.05;;
77160;SDS011;66135;0.000;0.000;2023-05-07T15:09:08;1.05;;;0.95;;
77160;SDS011;66135;0.000;0.000;2023-05-07T15:11:34;1.10;;;1.00;;
77160;SDS011;66135;0.000;0.000;2023-05-07T15:14:19;1.55;;;1.33;;
77160;SDS011;66135;0.000;0.000;2023-05-07T15:16:46;1.30;;;0.93;;
77160;SDS011;66135;0.000;0.000;2023-05-07T15:21:39;3.22;;;1.23;;
77160;SDS011;66135;0.000;0.000;2023-05-07T15:26:31;1.13;;;0.70;;
77160;SDS011;66135;0.000;0.000;2023-05-07T15:31:22;1.30;;;1.00;;
77160;SDS011;66135;0.000;0.000;2023-05-07T15:33:50;1.65;;;0.93;;
77160;SDS011;66135;0.000;0.000;2023-05-07T15:36:19;1.25;;;0.70;;
